sensor_id;sensor_type;location;lat;lon;timestamp;temperature;humidity
65207;SHT31;58477;48.072;11.970;2022-09-24T00:01:10;9.78;87.00
65207;SHT31;58477;48.072;11.970;2022-09-24T00:03:37;9.77;86.77
65207;SHT31;58477;48.072;11.970;2022-09-24T00:06:04;9.86;86.31
65207;SHT31;58477;48.072;11.970;2022-09-24T00:08:30;9.84;86.12
65207;SHT31;58477;48.072;11.970;2022-09-24T00:11:00;9.80;86.01
65207;SHT31;58477;48.072;11.970;2022-09-24T00:13:26;9.66;86.59
65207;SHT31;58477;48.072;11.970;2022-09-24T00:15:52;9.63;87.21
65207;SHT31;58477;48.072;11.970;2022-09-24T00:18:17;9.73;87.07
65207;SHT31;58477;48.072;11.970;2022-09-24T00:20:43;9.78;86.43
65207;SHT31;58477;48.072;11.970;2022-09-24T00:23:10;9.81;86.17
65207;SHT31;58477;48.072;11.970;2022-09-24T00:25:43;9.74;86.77
65207;SHT31;58477;48.072;11.970;2022-09-24T00:28:28;9.81;86.99
65207;SHT31;58477;48.072;11.970;2022-09-24T00:30:55;9.51;87.19
65207;SHT31;58477;48.072;11.970;2022-09-24T00:33:25;9.57;87.28
65207;SHT31;58477;48.072;11.970;2022-09-24T00:35:52;9.33;87.80
65207;SHT31;58477;48.072;11.970;2022-09-24T00:38:22;9.44;87.71
65207;SHT31;58477;48.072;11.970;2022-09-24T00:40:48;9.54;87.42
65207;SHT31;58477;48.072;11.970;2022-09-24T00:43:31;9.63;87.36
65207;SHT31;58477;48.072;11.970;2022-09-24T00:46:31;9.57;87.76
65207;SHT31;58477;48.072;11.970;2022-09-24T00:49:14;9.58;88.07
65207;SHT31;58477;48.072;11.970;2022-09-24T00:51:41;9.67;87.98
65207;SHT31;58477;48.072;11.970;2022-09-24T00:54:11;9.73;87.58
65207;SHT31;58477;48.072;11.970;2022-09-24T00:56:41;9.77;86.89
65207;SHT31;58477;48.072;11.970;2022-09-24T00:59:08;9.77;86.67
65207;SHT31;58477;48.072;11.970;2022-09-24T01:01:36;9.54;88.36
65207;SHT31;58477;48.072;11.970;2022-09-24T01:04:03;9.66;88.23
65207;SHT31;58477;48.072;11.970;2022-09-24T01:06:29;9.88;87.80
65207;SHT31;58477;48.072;11.970;2022-09-24T01:08:55;9.97;87.71
65207;SHT31;58477;48.072;11.970;2022-09-24T01:22:14;9.95;86.48
65207;SHT31;58477;48.072;11.970;2022-09-24T01:28:13;9.70;87.44
65207;SHT31;58477;48.072;11.970;2022-09-24T01:30:45;9.77;87.61
65207;SHT31;58477;48.072;11.970;2022-09-24T01:33:19;9.76;87.37
65207;SHT31;58477;48.072;11.970;2022-09-24T01:35:50;9.84;86.91
65207;SHT31;58477;48.072;11.970;2022-09-24T01:38:22;9.76;87.36
65207;SHT31;58477;48.072;11.970;2022-09-24T01:40:50;9.60;87.89
65207;SHT31;58477;48.072;11.970;2022-09-24T01:43:19;9.32;88.92
65207;SHT31;58477;48.072;11.970;2022-09-24T01:45:44;9.19;89.45
65207;SHT31;58477;48.072;11.970;2022-09-24T01:48:10;9.16;90.69
65207;SHT31;58477;48.072;11.970;2022-09-24T01:50:44;9.05;91.10
65207;SHT31;58477;48.072;11.970;2022-09-24T01:53:17;9.08;91.63
65207;SHT31;58477;48.072;11.970;2022-09-24T01:55:49;9.02;91.37
65207;SHT31;58477;48.072;11.970;2022-09-24T01:58:29;9.05;91.08
65207;SHT31;58477;48.072;11.970;2022-09-24T02:01:03;8.89;91.46
65207;SHT31;58477;48.072;11.970;2022-09-24T02:03:33;9.05;90.97
65207;SHT31;58477;48.072;11.970;2022-09-24T02:06:09;9.15;90.22
65207;SHT31;58477;48.072;11.970;2022-09-24T02:08:39;9.08;90.26
65207;SHT31;58477;48.072;11.970;2022-09-24T02:11:11;9.12;90.03
65207;SHT31;58477;48.072;11.970;2022-09-24T02:13:43;9.15;89.86
65207;SHT31;58477;48.072;11.970;2022-09-24T02:16:12;9.08;90.10
65207;SHT31;58477;48.072;11.970;2022-09-24T02:18:45;9.10;90.41
65207;SHT31;58477;48.072;11.970;2022-09-24T02:21:14;8.85;90.69
65207;SHT31;58477;48.072;11.970;2022-09-24T02:23:44;8.78;90.98
65207;SHT31;58477;48.072;11.970;2022-09-24T02:26:11;8.95;90.66
65207;SHT31;58477;48.072;11.970;2022-09-24T02:28:36;8.92;90.32
65207;SHT31;58477;48.072;11.970;2022-09-24T02:31:17;8.86;90.41
65207;SHT31;58477;48.072;11.970;2022-09-24T02:33:45;8.93;90.32
65207;SHT31;58477;48.072;11.970;2022-09-24T02:36:52;8.86;90.36
65207;SHT31;58477;48.072;11.970;2022-09-24T02:39:19;8.88;90.22
65207;SHT31;58477;48.072;11.970;2022-09-24T02:41:45;8.73;90.18
65207;SHT31;58477;48.072;11.970;2022-09-24T02:44:15;8.78;90.20
65207;SHT31;58477;48.072;11.970;2022-09-24T02:46:42;8.67;90.53
65207;SHT31;58477;48.072;11.970;2022-09-24T02:49:09;8.75;90.72
65207;SHT31;58477;48.072;11.970;2022-09-24T02:51:34;8.86;90.60
65207;SHT31;58477;48.072;11.970;2022-09-24T02:54:00;8.85;90.52
65207;SHT31;58477;48.072;11.970;2022-09-24T02:56:27;8.76;90.18
65207;SHT31;58477;48.072;11.970;2022-09-24T02:58:52;8.78;90.47
65207;SHT31;58477;48.072;11.970;2022-09-24T03:01:18;8.98;89.60
65207;SHT31;58477;48.072;11.970;2022-09-24T03:03:44;8.75;90.41
65207;SHT31;58477;48.072;11.970;2022-09-24T03:06:09;8.68;91.61
65207;SHT31;58477;48.072;11.970;2022-09-24T03:08:36;8.64;91.67
65207;SHT31;58477;48.072;11.970;2022-09-24T03:11:02;8.88;91.32
65207;SHT31;58477;48.072;11.970;2022-09-24T03:13:28;8.86;91.28
65207;SHT31;58477;48.072;11.970;2022-09-24T03:15:53;8.85;91.22
65207;SHT31;58477;48.072;11.970;2022-09-24T03:18:19;8.86;90.97
65207;SHT31;58477;48.072;11.970;2022-09-24T03:21:03;8.80;90.72
65207;SHT31;58477;48.072;11.970;2022-09-24T03:23:29;8.76;90.83
65207;SHT31;58477;48.072;11.970;2022-09-24T03:25:55;8.80;90.26
65207;SHT31;58477;48.072;11.970;2022-09-24T03:28:21;8.65;90.73
65207;SHT31;58477;48.072;11.970;2022-09-24T03:30:46;8.61;91.15
65207;SHT31;58477;48.072;11.970;2022-09-24T03:33:45;8.65;91.30
65207;SHT31;58477;48.072;11.970;2022-09-24T03:36:13;8.52;91.63
65207;SHT31;58477;48.072;11.970;2022-09-24T03:38:41;8.45;91.80
65207;SHT31;58477;48.072;11.970;2022-09-24T03:41:08;8.33;92.05
65207;SHT31;58477;48.072;11.970;2022-09-24T03:43:34;8.30;92.50
65207;SHT31;58477;48.072;11.970;2022-09-24T03:46:02;8.28;92.67
65207;SHT31;58477;48.072;11.970;2022-09-24T03:48:28;8.52;92.51
65207;SHT31;58477;48.072;11.970;2022-09-24T03:50:55;8.71;91.96
65207;SHT31;58477;48.072;11.970;2022-09-24T03:53:21;8.78;91.73
65207;SHT31;58477;48.072;11.970;2022-09-24T03:55:53;8.85;91.52
65207;SHT31;58477;48.072;11.970;2022-09-24T03:58:19;8.90;91.29
65207;SHT31;58477;48.072;11.970;2022-09-24T04:00:45;8.95;91.62
65207;SHT31;58477;48.072;11.970;2022-09-24T04:03:10;8.93;91.68
65207;SHT31;58477;48.072;11.970;2022-09-24T04:05:36;9.05;91.29
65207;SHT31;58477;48.072;11.970;2022-09-24T04:08:02;9.13;91.18
65207;SHT31;58477;48.072;11.970;2022-09-24T04:10:29;9.13;90.86
65207;SHT31;58477;48.072;11.970;2022-09-24T04:12:55;9.18;90.83
65207;SHT31;58477;48.072;11.970;2022-09-24T04:15:20;9.22;90.71
65207;SHT31;58477;48.072;11.970;2022-09-24T04:17:51;9.30;90.35
65207;SHT31;58477;48.072;11.970;2022-09-24T04:20:18;9.30;90.30
65207;SHT31;58477;48.072;11.970;2022-09-24T04:22:46;9.23;90.30
65207;SHT31;58477;48.072;11.970;2022-09-24T04:25:12;9.27;90.37
65207;SHT31;58477;48.072;11.970;2022-09-24T04:27:37;9.16;90.13
65207;SHT31;58477;48.072;11.970;2022-09-24T04:30:03;9.19;90.79
65207;SHT31;58477;48.072;11.970;2022-09-24T04:32:29;9.24;90.90
65207;SHT31;58477;48.072;11.970;2022-09-24T04:34:54;9.27;91.08
65207;SHT31;58477;48.072;11.970;2022-09-24T04:37:20;9.36;90.96
65207;SHT31;58477;48.072;11.970;2022-09-24T04:39:45;9.34;91.04
65207;SHT31;58477;48.072;11.970;2022-09-24T04:42:15;9.43;90.94
65207;SHT31;58477;48.072;11.970;2022-09-24T04:44:41;9.46;90.51
65207;SHT31;58477;48.072;11.970;2022-09-24T04:47:08;9.40;90.80
65207;SHT31;58477;48.072;11.970;2022-09-24T04:49:35;9.27;91.50
65207;SHT31;58477;48.072;11.970;2022-09-24T04:52:00;9.43;90.99
65207;SHT31;58477;48.072;11.970;2022-09-24T04:54:26;9.37;91.17
65207;SHT31;58477;48.072;11.970;2022-09-24T04:56:53;9.40;91.01
65207;SHT31;58477;48.072;11.970;2022-09-24T04:59:19;9.34;91.45
65207;SHT31;58477;48.072;11.970;2022-09-24T05:01:44;9.60;90.77
65207;SHT31;58477;48.072;11.970;2022-09-24T05:04:10;9.63;90.64
65207;SHT31;58477;48.072;11.970;2022-09-24T05:06:35;9.77;89.95
65207;SHT31;58477;48.072;11.970;2022-09-24T05:09:01;9.83;89.76
65207;SHT31;58477;48.072;11.970;2022-09-24T05:11:26;9.53;90.46
65207;SHT31;58477;48.072;11.970;2022-09-24T05:13:51;9.70;90.09
65207;SHT31;58477;48.072;11.970;2022-09-24T05:16:17;9.90;89.26
65207;SHT31;58477;48.072;11.970;2022-09-24T05:18:42;10.11;88.22
65207;SHT31;58477;48.072;11.970;2022-09-24T05:21:08;10.12;88.05
65207;SHT31;58477;48.072;11.970;2022-09-24T05:23:33;10.17;87.66
65207;SHT31;58477;48.072;11.970;2022-09-24T05:25:59;10.14;88.56
65207;SHT31;58477;48.072;11.970;2022-09-24T05:28:42;10.27;88.03
65207;SHT31;58477;48.072;11.970;2022-09-24T05:31:08;10.18;88.10
65207;SHT31;58477;48.072;11.970;2022-09-24T05:33:35;10.27;87.89
65207;SHT31;58477;48.072;11.970;2022-09-24T05:36:01;10.38;87.82
65207;SHT31;58477;48.072;11.970;2022-09-24T05:38:26;10.49;88.09
65207;SHT31;58477;48.072;11.970;2022-09-24T05:40:54;10.55;89.18
65207;SHT31;58477;48.072;11.970;2022-09-24T05:43:19;10.61;88.51
65207;SHT31;58477;48.072;11.970;2022-09-24T05:45:45;10.68;88.26
65207;SHT31;58477;48.072;11.970;2022-09-24T05:48:11;10.69;87.39
65207;SHT31;58477;48.072;11.970;2022-09-24T05:50:36;10.69;87.29
65207;SHT31;58477;48.072;11.970;2022-09-24T05:53:04;10.68;86.21
65207;SHT31;58477;48.072;11.970;2022-09-24T05:55:30;10.75;86.85
65207;SHT31;58477;48.072;11.970;2022-09-24T05:58:10;10.69;87.80
65207;SHT31;58477;48.072;11.970;2022-09-24T06:00:36;10.76;87.29
65207;SHT31;58477;48.072;11.970;2022-09-24T06:03:06;10.80;86.58
65207;SHT31;58477;48.072;11.970;2022-09-24T06:05:34;10.99;85.22
65207;SHT31;58477;48.072;11.970;2022-09-24T06:08:01;11.17;85.17
65207;SHT31;58477;48.072;11.970;2022-09-24T06:10:26;11.23;84.66
65207;SHT31;58477;48.072;11.970;2022-09-24T06:12:52;11.38;83.98
65207;SHT31;58477;48.072;11.970;2022-09-24T06:15:18;11.58;83.97
65207;SHT31;58477;48.072;11.970;2022-09-24T06:17:45;11.57;84.05
65207;SHT31;58477;48.072;11.970;2022-09-24T06:20:10;11.56;85.53
65207;SHT31;58477;48.072;11.970;2022-09-24T06:22:36;11.58;85.28
65207;SHT31;58477;48.072;11.970;2022-09-24T06:25:01;11.66;85.11
65207;SHT31;58477;48.072;11.970;2022-09-24T06:27:27;11.53;84.40
65207;SHT31;58477;48.072;11.970;2022-09-24T06:29:52;11.51;84.06
65207;SHT31;58477;48.072;11.970;2022-09-24T06:32:17;11.66;83.53
65207;SHT31;58477;48.072;11.970;2022-09-24T06:34:44;11.77;83.39
65207;SHT31;58477;48.072;11.970;2022-09-24T06:37:09;11.57;84.86
65207;SHT31;58477;48.072;11.970;2022-09-24T06:39:35;11.82;83.75
65207;SHT31;58477;48.072;11.970;2022-09-24T06:42:00;11.99;83.95
65207;SHT31;58477;48.072;11.970;2022-09-24T06:44:32;12.25;82.91
65207;SHT31;58477;48.072;11.970;2022-09-24T06:46:59;12.31;82.10
65207;SHT31;58477;48.072;11.970;2022-09-24T06:49:25;12.53;82.07
65207;SHT31;58477;48.072;11.970;2022-09-24T06:51:52;12.73;80.93
65207;SHT31;58477;48.072;11.970;2022-09-24T06:54:18;12.80;80.81
65207;SHT31;58477;48.072;11.970;2022-09-24T06:56:44;12.85;79.92
65207;SHT31;58477;48.072;11.970;2022-09-24T06:59:10;12.82;79.71
65207;SHT31;58477;48.072;11.970;2022-09-24T07:01:35;12.86;79.59
65207;SHT31;58477;48.072;11.970;2022-09-24T07:04:00;12.85;79.64
65207;SHT31;58477;48.072;11.970;2022-09-24T07:06:26;12.92;79.47
65207;SHT31;58477;48.072;11.970;2022-09-24T07:09:11;12.95;80.38
65207;SHT31;58477;48.072;11.970;2022-09-24T07:11:37;13.14;80.60
65207;SHT31;58477;48.072;11.970;2022-09-24T07:14:02;13.26;78.95
65207;SHT31;58477;48.072;11.970;2022-09-24T07:16:27;13.09;79.48
65207;SHT31;58477;48.072;11.970;2022-09-24T07:18:53;13.13;79.30
65207;SHT31;58477;48.072;11.970;2022-09-24T07:21:18;13.36;78.59
65207;SHT31;58477;48.072;11.970;2022-09-24T07:23:44;13.48;78.34
65207;SHT31;58477;48.072;11.970;2022-09-24T07:26:09;13.61;78.66
65207;SHT31;58477;48.072;11.970;2022-09-24T07:28:34;13.55;78.79
65207;SHT31;58477;48.072;11.970;2022-09-24T07:31:00;13.61;77.57
65207;SHT31;58477;48.072;11.970;2022-09-24T07:33:26;13.62;78.13
65207;SHT31;58477;48.072;11.970;2022-09-24T07:35:51;13.74;78.19
65207;SHT31;58477;48.072;11.970;2022-09-24T07:38:16;13.81;77.66
65207;SHT31;58477;48.072;11.970;2022-09-24T07:40:42;13.64;77.60
65207;SHT31;58477;48.072;11.970;2022-09-24T07:43:09;13.54;77.49
65207;SHT31;58477;48.072;11.970;2022-09-24T07:45:38;13.61;77.70
65207;SHT31;58477;48.072;11.970;2022-09-24T07:48:04;13.84;77.16
65207;SHT31;58477;48.072;11.970;2022-09-24T07:50:32;13.81;77.57
65207;SHT31;58477;48.072;11.970;2022-09-24T07:52:58;13.97;77.55
65207;SHT31;58477;48.072;11.970;2022-09-24T07:55:25;14.00;77.15
65207;SHT31;58477;48.072;11.970;2022-09-24T07:57:53;14.21;76.14
65207;SHT31;58477;48.072;11.970;2022-09-24T08:00:19;14.43;75.73
65207;SHT31;58477;48.072;11.970;2022-09-24T08:02:46;14.93;74.79
65207;SHT31;58477;48.072;11.970;2022-09-24T08:05:12;15.20;73.50
65207;SHT31;58477;48.072;11.970;2022-09-24T08:07:40;15.10;73.26
65207;SHT31;58477;48.072;11.970;2022-09-24T08:10:05;15.00;73.88
65207;SHT31;58477;48.072;11.970;2022-09-24T08:12:31;15.19;74.99
65207;SHT31;58477;48.072;11.970;2022-09-24T08:14:56;15.11;74.69
65207;SHT31;58477;48.072;11.970;2022-09-24T08:17:22;15.08;75.00
65207;SHT31;58477;48.072;11.970;2022-09-24T08:19:47;15.10;74.83
65207;SHT31;58477;48.072;11.970;2022-09-24T08:22:13;14.87;75.74
65207;SHT31;58477;48.072;11.970;2022-09-24T08:24:39;15.08;75.36
65207;SHT31;58477;48.072;11.970;2022-09-24T08:27:05;15.21;75.95
65207;SHT31;58477;48.072;11.970;2022-09-24T08:29:30;15.11;75.25
65207;SHT31;58477;48.072;11.970;2022-09-24T08:31:56;15.31;74.98
65207;SHT31;58477;48.072;11.970;2022-09-24T08:34:21;15.14;75.08
65207;SHT31;58477;48.072;11.970;2022-09-24T08:36:46;15.44;75.00
65207;SHT31;58477;48.072;11.970;2022-09-24T08:39:24;15.41;75.70
65207;SHT31;58477;48.072;11.970;2022-09-24T08:42:10;15.23;75.76
65207;SHT31;58477;48.072;11.970;2022-09-24T08:44:39;15.84;75.33
65207;SHT31;58477;48.072;11.970;2022-09-24T08:50:29;16.39;71.20
65207;SHT31;58477;48.072;11.970;2022-09-24T08:53:42;16.72;70.77
65207;SHT31;58477;48.072;11.970;2022-09-24T08:56:09;16.28;71.80
65207;SHT31;58477;48.072;11.970;2022-09-24T08:58:37;16.38;72.12
65207;SHT31;58477;48.072;11.970;2022-09-24T09:01:34;16.02;73.37
65207;SHT31;58477;48.072;11.970;2022-09-24T09:12:02;15.94;75.33
65207;SHT31;58477;48.072;11.970;2022-09-24T09:14:42;15.92;75.33
65207;SHT31;58477;48.072;11.970;2022-09-24T09:17:20;15.81;76.17
65207;SHT31;58477;48.072;11.970;2022-09-24T09:19:55;15.95;76.46
65207;SHT31;58477;48.072;11.970;2022-09-24T09:22:25;15.71;76.64
65207;SHT31;58477;48.072;11.970;2022-09-24T09:24:52;15.61;77.88
65207;SHT31;58477;48.072;11.970;2022-09-24T09:27:19;16.01;76.87
65207;SHT31;58477;48.072;11.970;2022-09-24T09:29:55;16.06;76.50
65207;SHT31;58477;48.072;11.970;2022-09-24T09:32:46;16.13;76.35
65207;SHT31;58477;48.072;11.970;2022-09-24T09:35:17;15.97;76.82
65207;SHT31;58477;48.072;11.970;2022-09-24T09:38:08;15.85;77.04
65207;SHT31;58477;48.072;11.970;2022-09-24T09:40:47;15.61;78.40
65207;SHT31;58477;48.072;11.970;2022-09-24T09:43:14;15.34;79.81
65207;SHT31;58477;48.072;11.970;2022-09-24T09:46:05;15.04;79.29
65207;SHT31;58477;48.072;11.970;2022-09-24T09:48:53;14.87;80.21
65207;SHT31;58477;48.072;11.970;2022-09-24T09:51:24;14.93;80.72
65207;SHT31;58477;48.072;11.970;2022-09-24T09:53:57;14.96;80.28
65207;SHT31;58477;48.072;11.970;2022-09-24T09:56:34;15.03;81.53
65207;SHT31;58477;48.072;11.970;2022-09-24T09:59:18;14.99;81.32
65207;SHT31;58477;48.072;11.970;2022-09-24T10:01:48;15.06;82.02
65207;SHT31;58477;48.072;11.970;2022-09-24T10:04:23;15.08;82.17
65207;SHT31;58477;48.072;11.970;2022-09-24T10:06:50;14.96;81.64
65207;SHT31;58477;48.072;11.970;2022-09-24T10:09:17;15.13;82.03
65207;SHT31;58477;48.072;11.970;2022-09-24T10:11:46;15.24;81.06
65207;SHT31;58477;48.072;11.970;2022-09-24T10:14:14;15.34;79.67
65207;SHT31;58477;48.072;11.970;2022-09-24T10:16:43;15.65;79.73
65207;SHT31;58477;48.072;11.970;2022-09-24T10:19:23;15.95;77.83
65207;SHT31;58477;48.072;11.970;2022-09-24T10:21:51;16.23;76.65
65207;SHT31;58477;48.072;11.970;2022-09-24T10:24:23;16.30;77.40
65207;SHT31;58477;48.072;11.970;2022-09-24T10:26:49;16.36;75.78
65207;SHT31;58477;48.072;11.970;2022-09-24T10:29:23;16.67;76.24
65207;SHT31;58477;48.072;11.970;2022-09-24T10:32:15;16.76;75.91
65207;SHT31;58477;48.072;11.970;2022-09-24T10:34:41;16.84;74.54
65207;SHT31;58477;48.072;11.970;2022-09-24T10:37:15;16.97;75.12
65207;SHT31;58477;48.072;11.970;2022-09-24T10:39:41;17.17;73.29
65207;SHT31;58477;48.072;11.970;2022-09-24T10:42:23;17.17;73.35
65207;SHT31;58477;48.072;11.970;2022-09-24T10:44:49;17.03;72.83
65207;SHT31;58477;48.072;11.970;2022-09-24T10:50:30;17.77;73.67
65207;SHT31;58477;48.072;11.970;2022-09-24T10:53:31;17.86;71.91
65207;SHT31;58477;48.072;11.970;2022-09-24T10:56:22;17.52;72.25
65207;SHT31;58477;48.072;11.970;2022-09-24T10:59:01;17.27;72.73
65207;SHT31;58477;48.072;11.970;2022-09-24T11:04:54;17.00;72.88
65207;SHT31;58477;48.072;11.970;2022-09-24T11:10:06;17.10;72.36
65207;SHT31;58477;48.072;11.970;2022-09-24T11:13:00;17.17;73.08
65207;SHT31;58477;48.072;11.970;2022-09-24T11:21:00;17.17;71.62
65207;SHT31;58477;48.072;11.970;2022-09-24T11:26:59;17.28;73.03
65207;SHT31;58477;48.072;11.970;2022-09-24T11:32:54;17.21;72.49
65207;SHT31;58477;48.072;11.970;2022-09-24T11:46:36;16.77;73.58
65207;SHT31;58477;48.072;11.970;2022-09-24T11:52:13;16.46;73.92
65207;SHT31;58477;48.072;11.970;2022-09-24T11:57:38;16.25;74.62
65207;SHT31;58477;48.072;11.970;2022-09-24T12:00:10;16.23;75.14
65207;SHT31;58477;48.072;11.970;2022-09-24T12:02:41;16.26;75.39
65207;SHT31;58477;48.072;11.970;2022-09-24T12:08:09;16.63;73.28
65207;SHT31;58477;48.072;11.970;2022-09-24T12:10:56;16.80;74.00
65207;SHT31;58477;48.072;11.970;2022-09-24T12:13:45;16.55;73.85
65207;SHT31;58477;48.072;11.970;2022-09-24T12:16:15;16.66;73.92
65207;SHT31;58477;48.072;11.970;2022-09-24T12:18:55;16.74;73.22
65207;SHT31;58477;48.072;11.970;2022-09-24T12:21:29;16.79;73.96
65207;SHT31;58477;48.072;11.970;2022-09-24T12:23:57;17.02;73.57
65207;SHT31;58477;48.072;11.970;2022-09-24T12:26:24;16.73;73.36
65207;SHT31;58477;48.072;11.970;2022-09-24T12:35:32;16.81;74.89
65207;SHT31;58477;48.072;11.970;2022-09-24T12:38:13;16.73;74.32
65207;SHT31;58477;48.072;11.970;2022-09-24T12:43:57;16.93;73.59
65207;SHT31;58477;48.072;11.970;2022-09-24T12:46:30;17.17;73.55
65207;SHT31;58477;48.072;11.970;2022-09-24T12:48:56;17.57;71.67
65207;SHT31;58477;48.072;11.970;2022-09-24T12:51:22;17.74;71.94
65207;SHT31;58477;48.072;11.970;2022-09-24T12:54:04;18.13;70.95
65207;SHT31;58477;48.072;11.970;2022-09-24T12:56:31;18.21;70.16
65207;SHT31;58477;48.072;11.970;2022-09-24T12:58:56;17.95;70.10
65207;SHT31;58477;48.072;11.970;2022-09-24T13:06:38;17.95;72.25
65207;SHT31;58477;48.072;11.970;2022-09-24T13:09:35;17.65;72.39
65207;SHT31;58477;48.072;11.970;2022-09-24T13:15:25;16.76;75.61
65207;SHT31;58477;48.072;11.970;2022-09-24T13:18:04;16.50;75.97
65207;SHT31;58477;48.072;11.970;2022-09-24T13:20:32;16.49;75.72
65207;SHT31;58477;48.072;11.970;2022-09-24T13:23:10;16.43;76.35
65207;SHT31;58477;48.072;11.970;2022-09-24T13:25:36;16.56;75.75
65207;SHT31;58477;48.072;11.970;2022-09-24T13:28:25;16.60;75.41
65207;SHT31;58477;48.072;11.970;2022-09-24T13:31:07;16.59;75.76
65207;SHT31;58477;48.072;11.970;2022-09-24T13:33:41;16.80;75.19
65207;SHT31;58477;48.072;11.970;2022-09-24T13:36:11;16.79;74.41
65207;SHT31;58477;48.072;11.970;2022-09-24T13:38:47;16.69;76.06
65207;SHT31;58477;48.072;11.970;2022-09-24T13:41:39;16.67;75.27
65207;SHT31;58477;48.072;11.970;2022-09-24T13:46:58;16.85;74.22
65207;SHT31;58477;48.072;11.970;2022-09-24T13:49:24;16.93;74.25
65207;SHT31;58477;48.072;11.970;2022-09-24T13:51:58;16.73;74.54
65207;SHT31;58477;48.072;11.970;2022-09-24T13:54:33;16.80;74.53
65207;SHT31;58477;48.072;11.970;2022-09-24T13:57:25;17.03;75.03
65207;SHT31;58477;48.072;11.970;2022-09-24T14:00:14;16.97;74.84
65207;SHT31;58477;48.072;11.970;2022-09-24T14:02:43;16.77;76.76
65207;SHT31;58477;48.072;11.970;2022-09-24T14:05:15;16.85;74.58
65207;SHT31;58477;48.072;11.970;2022-09-24T14:07:41;16.76;76.11
65207;SHT31;58477;48.072;11.970;2022-09-24T14:10:12;16.62;76.74
65207;SHT31;58477;48.072;11.970;2022-09-24T14:12:38;16.76;75.62
65207;SHT31;58477;48.072;11.970;2022-09-24T14:15:12;16.81;74.95
65207;SHT31;58477;48.072;11.970;2022-09-24T14:17:38;16.70;75.08
65207;SHT31;58477;48.072;11.970;2022-09-24T14:20:04;16.69;76.02
65207;SHT31;58477;48.072;11.970;2022-09-24T14:22:36;16.69;76.57
65207;SHT31;58477;48.072;11.970;2022-09-24T14:25:16;16.73;76.35
65207;SHT31;58477;48.072;11.970;2022-09-24T14:27:44;16.53;75.36
65207;SHT31;58477;48.072;11.970;2022-09-24T14:30:19;16.52;76.43
65207;SHT31;58477;48.072;11.970;2022-09-24T14:32:50;16.39;77.31
65207;SHT31;58477;48.072;11.970;2022-09-24T14:35:16;16.32;77.06
65207;SHT31;58477;48.072;11.970;2022-09-24T14:37:51;16.46;77.15
65207;SHT31;58477;48.072;11.970;2022-09-24T14:40:19;16.40;77.85
65207;SHT31;58477;48.072;11.970;2022-09-24T14:43:03;16.52;76.66
65207;SHT31;58477;48.072;11.970;2022-09-24T14:45:31;16.52;76.63
65207;SHT31;58477;48.072;11.970;2022-09-24T14:48:26;16.73;76.97
65207;SHT31;58477;48.072;11.970;2022-09-24T14:50:49;16.70;76.43
65207;SHT31;58477;48.072;11.970;2022-09-24T14:53:29;16.73;75.21
65207;SHT31;58477;48.072;11.970;2022-09-24T14:55:57;16.77;74.39
65207;SHT31;58477;48.072;11.970;2022-09-24T15:00:58;16.64;77.02
65207;SHT31;58477;48.072;11.970;2022-09-24T15:03:39;16.62;76.66
65207;SHT31;58477;48.072;11.970;2022-09-24T15:08:37;16.42;77.29
65207;SHT31;58477;48.072;11.970;2022-09-24T15:11:04;16.32;77.58
65207;SHT31;58477;48.072;11.970;2022-09-24T15:13:36;16.36;77.81
65207;SHT31;58477;48.072;11.970;2022-09-24T15:16:25;16.38;77.01
65207;SHT31;58477;48.072;11.970;2022-09-24T15:19:17;16.19;77.51
65207;SHT31;58477;48.072;11.970;2022-09-24T15:21:42;16.29;78.69
65207;SHT31;58477;48.072;11.970;2022-09-24T15:24:08;16.19;78.57
65207;SHT31;58477;48.072;11.970;2022-09-24T15:26:35;16.10;79.19
65207;SHT31;58477;48.072;11.970;2022-09-24T15:29:01;16.02;79.13
65207;SHT31;58477;48.072;11.970;2022-09-24T15:31:28;15.95;79.06
65207;SHT31;58477;48.072;11.970;2022-09-24T15:33:53;15.82;79.75
65207;SHT31;58477;48.072;11.970;2022-09-24T15:36:20;15.79;80.37
65207;SHT31;58477;48.072;11.970;2022-09-24T15:38:50;15.68;81.76
65207;SHT31;58477;48.072;11.970;2022-09-24T15:41:17;15.64;81.65
65207;SHT31;58477;48.072;11.970;2022-09-24T15:43:44;15.59;81.54
65207;SHT31;58477;48.072;11.970;2022-09-24T15:46:09;15.57;82.27
65207;SHT31;58477;48.072;11.970;2022-09-24T15:48:35;15.30;84.09
65207;SHT31;58477;48.072;11.970;2022-09-24T15:51:01;15.19;84.42
65207;SHT31;58477;48.072;11.970;2022-09-24T15:53:27;15.11;84.93
65207;SHT31;58477;48.072;11.970;2022-09-24T15:55:58;15.01;85.96
65207;SHT31;58477;48.072;11.970;2022-09-24T15:58:24;15.04;85.44
65207;SHT31;58477;48.072;11.970;2022-09-24T16:00:49;14.99;85.44
65207;SHT31;58477;48.072;11.970;2022-09-24T16:03:27;14.90;85.23
65207;SHT31;58477;48.072;11.970;2022-09-24T16:05:53;14.83;86.89
65207;SHT31;58477;48.072;11.970;2022-09-24T16:08:19;14.81;87.35
65207;SHT31;58477;48.072;11.970;2022-09-24T16:10:45;14.81;87.10
65207;SHT31;58477;48.072;11.970;2022-09-24T16:13:11;14.75;86.75
65207;SHT31;58477;48.072;11.970;2022-09-24T16:15:38;14.70;86.19
65207;SHT31;58477;48.072;11.970;2022-09-24T16:18:04;14.68;86.55
65207;SHT31;58477;48.072;11.970;2022-09-24T16:20:30;14.53;87.21
65207;SHT31;58477;48.072;11.970;2022-09-24T16:22:55;14.53;87.63
65207;SHT31;58477;48.072;11.970;2022-09-24T16:25:21;14.65;86.89
65207;SHT31;58477;48.072;11.970;2022-09-24T16:27:46;14.58;86.92
65207;SHT31;58477;48.072;11.970;2022-09-24T16:30:12;14.29;88.45
65207;SHT31;58477;48.072;11.970;2022-09-24T16:32:37;14.22;89.20
65207;SHT31;58477;48.072;11.970;2022-09-24T16:35:03;14.18;88.94
65207;SHT31;58477;48.072;11.970;2022-09-24T16:37:29;14.28;88.97
65207;SHT31;58477;48.072;11.970;2022-09-24T16:39:55;14.33;88.53
65207;SHT31;58477;48.072;11.970;2022-09-24T16:42:20;14.16;89.05
65207;SHT31;58477;48.072;11.970;2022-09-24T16:44:46;14.00;90.01
65207;SHT31;58477;48.072;11.970;2022-09-24T16:47:11;13.89;90.63
65207;SHT31;58477;48.072;11.970;2022-09-24T16:49:41;13.97;90.18
65207;SHT31;58477;48.072;11.970;2022-09-24T16:52:06;13.95;89.83
65207;SHT31;58477;48.072;11.970;2022-09-24T16:54:32;13.84;90.44
65207;SHT31;58477;48.072;11.970;2022-09-24T17:00:22;13.65;91.70
65207;SHT31;58477;48.072;11.970;2022-09-24T17:02:47;13.53;92.10
65207;SHT31;58477;48.072;11.970;2022-09-24T17:05:13;13.50;92.43
65207;SHT31;58477;48.072;11.970;2022-09-24T17:07:38;13.43;92.55
65207;SHT31;58477;48.072;11.970;2022-09-24T17:10:04;13.37;92.88
65207;SHT31;58477;48.072;11.970;2022-09-24T17:12:48;13.34;93.28
65207;SHT31;58477;48.072;11.970;2022-09-24T17:15:15;13.30;93.30